Nearby METAR (Airport) Reports

 

KPRN - Greenville, Alabama, USA
Distance from station: WNW 17mi, 28km
Updated: Sat, 17-Apr-2021 5:58pm CDT
NOT Current
Overcast
Overcast
 Wind from W
Wind: W 6 mph , 9 km/h
Temperature: 70°F , 21°C
Dew Point: 55°F , 13°C
Humidity: 60%
Barometer: 29.86 inHg , 1011.2 hPa
Clouds: Overcast
Visibility: 10 miles , 16 km
Cloud details: Overcast 6000 ft
2021/04/17 22:58 KPRN 172258Z AUTO 27005KT 10SM OVC060 21/13 A2986 RMK AO2 SLP059 T02060128
KTOI - Troy, Alabama, USA
Distance from station: ENE 21mi, 34km
Updated: Sat, 17-Apr-2021 7:53pm CDT
Clear
Clear
 Wind from calm
Wind: Calm
Temperature: 64°F , 18°C
Dew Point: 61°F , 16°C
Humidity: 88%
Barometer: 29.86 inHg , 1011.2 hPa
Clouds: Clear
Visibility: 10 miles , 16 km
2021/04/18 00:53 KTOI 180053Z AUTO 00000KT 10SM CLR 18/16 A2986 RMK AO2 SLP108 T01830156
K79J - Andalusia/Opp Ar, Alabama, USA
Distance from station: S 29mi, 47km
Updated: Sat, 17-Apr-2021 7:56pm CDT
Few Clouds
Few Clouds
 Wind from WSW
Wind: WSW 3 mph , 6 km/h
Temperature: 66°F , 19°C
Dew Point: 63°F , 17°C
Humidity: 88%
Barometer: 29.87 inHg , 1011.5 hPa
Clouds: Few Clouds
Visibility: 9 miles , 14 km
Cloud details: Few Clouds 12000 ft
2021/04/18 00:56 K79J 180056Z AUTO 24003KT 9SM FEW120 19/17 A2987 RMK AO2 PRESRR SLP111 T01940167
 
KMGM - Montgomery, Alabama, USA
Distance from station: N 39mi, 63km
Updated: Sat, 17-Apr-2021 7:53pm CDT
Clear
Clear
 Wind from W
Wind: W 6 mph , 9 km/h
Temperature: 66°F , 19°C
Dew Point: 54°F , 12°C
Humidity: 64%
Barometer: 29.86 inHg , 1011.2 hPa
Clouds: Clear
Visibility: 10 miles , 16 km
2021/04/18 00:53 KMGM 180053Z 27005KT 10SM CLR 19/12 A2986 RMK AO2 SLP109 T01890122
KMXF - Maxwell Afb/Mgm, Alabama, USA
Distance from station: N 44mi, 70km
Updated: Sat, 17-Apr-2021 7:56pm CDT
Mostly cloudy
Mostly cloudy
 Wind from calm
Wind: Calm
Temperature: 66°F , 19°C
Dew Point: 54°F , 12°C
Humidity: 64%
Barometer: 29.84 inHg , 1010.5 hPa
Clouds: Mostly cloudy
Visibility: 10 miles , 16 km
Cloud details: Few Clouds 4800 ft
Mostly cloudy 15000 ft
2021/04/18 00:56 KMXF 180056Z AUTO 00000KT 10SM FEW048 BKN150 19/12 A2984 RMK AO2 SLP107 T01880121
KLOR - Lowe Ahp/Ft. Ruc, Alabama, USA
Distance from station: SE 44mi, 71km
Updated: Sat, 17-Apr-2021 7:58pm CDT

 
2021/04/18 00:58 KLOR 180058Z AUTO M M M M M M RMK AO2 SLPNO PWINO PNO FZRANO TSNO $
 
KGZH - Evergreen, Alabama, USA
Distance from station: WSW 46mi, 75km
Updated: Sat, 17-Apr-2021 7:53pm CDT
Clear
Clear
 Wind from WSW
Wind: WSW 3 mph , 6 km/h
Temperature: 64°F , 18°C
Dew Point: 61°F , 16°C
Humidity: 88%
Barometer: 29.89 inHg , 1012.2 hPa
Clouds: Clear
Visibility: M 10 miles , 16 km
2021/04/18 00:53 KGZH 180053Z AUTO 24003KT 10SM CLR 18/16 A2989 RMK AO2 SLP118 T01780156 $
K0J4 - Florala Muni, Alabama, USA
Distance from station: S 47mi, 76km
Updated: Wed, 14-Apr-2021 1:58pm CDT
NOT Current
Overcast
Overcast
 Wind from SW
Wind: SW 10 mph , 17 km/h
Temperature: 77°F , 25°C
Dew Point: 57°F , 14°C
Humidity: 51%
Barometer: 30.12 inHg , 1020 hPa
Clouds: Overcast
Visibility: 10 miles , 16 km
Cloud details: Few Clouds 4500 ft
Overcast 8000 ft
2021/04/14 18:58 K0J4 141858Z AUTO 22009KT 10SM FEW045 OVC080 25/14 A3012 RMK AO2 SLP195 T02500144
KOZR - Ozark/Cairns Aaf, Alabama, USA
Distance from station: SE 49mi, 78km
Updated: Sat, 17-Apr-2021 8:32pm CDT
Mostly cloudy
Mostly cloudy
 Wind from SW
Wind: SW 3 mph , 6 km/h
Temperature: 61°F , 16°C
Dew Point: 61°F , 16°C
Humidity: 100%
Barometer: 29.87 inHg , 1011.5 hPa
Clouds: Mostly cloudy
Visibility: 10 miles , 16 km
Cloud details: Few Clouds 300 ft
Mostly cloudy 5500 ft
Mostly cloudy 17000 ft
2021/04/18 01:32 KOZR 180132Z AUTO 22003KT 10SM FEW003 BKN055 BKN170 16/16 A2987 RMK AO2 SLP116 $
 
KHEY - Ft Rucker/Hanche, Alabama, USA
Distance from station: ESE 49mi, 79km
Updated: Sat, 17-Apr-2021 8:25pm CDT
Mist, Mostly cloudy
Mist, Mostly cloudy
 Wind from calm
Wind: Calm
Temperature: 61°F , 16°C
Dew Point: 61°F , 16°C
Humidity: 100%
Barometer: 29.87 inHg , 1011.5 hPa
Summary: Mist
Clouds: Mostly cloudy
Visibility: 6 miles , 10 km
Cloud details: Mostly cloudy 6000 ft
Mostly cloudy 16000 ft
2021/04/18 01:25 KHEY 180125Z AUTO 00000KT 6SM BR BKN060 BKN160 16/16 A2987 RMK AO2 LTG DSNT S PRESRR SLP116
KDHN - Dothan, Alabama, USA
Distance from station: ESE 61mi, 97km
Updated: Sat, 17-Apr-2021 8:03pm CDT
Mist, Partly cloudy
Mist, Partly cloudy
 Wind from N
Wind: N 3 mph , 6 km/h
Temperature: 63°F , 17°C
Dew Point: 61°F , 16°C
Humidity: 94%
Barometer: 29.88 inHg , 1011.9 hPa
Summary: Mist
Clouds: Partly cloudy
Visibility: 6 miles , 10 km
Cloud details: Partly cloudy 500 ft
2021/04/18 01:03 KDHN 180103Z AUTO 36003KT 6SM BR SCT005 17/16 A2988 RMK AO2 T01670161
KCEW - Crestview, Florida, USA
Distance from station: S 66mi, 107km
Updated: Sat, 17-Apr-2021 8:28pm CDT
Light rain, Overcast
Light rain, Overcast
 Wind from NNW
Wind: NNW 6 mph , 9 km/h
Temperature: 63°F , 17°C
Dew Point: 61°F , 16°C
Humidity: 94%
Barometer: 29.91 inHg , 1012.9 hPa
Summary: Light rain
Clouds: Overcast
Visibility: 9 miles , 14 km
Cloud details: Partly cloudy 800 ft
Partly cloudy 7500 ft
Overcast 10000 ft
2021/04/18 01:28 KCEW 180128Z AUTO 33005KT 9SM -RA SCT008 SCT075 OVC100 17/16 A2991 RMK AO2 RAB0056 P0001 T01720161
 
KEUF - Eufaula, Alabama, USA
Distance from station: ENE 73mi, 118km
Updated: Sat, 17-Apr-2021 7:58pm CDT
Clear
Clear
 Wind from calm
Wind: Calm
Temperature: 66°F , 19°C
Dew Point: 61°F , 16°C
Humidity: 83%
Barometer: 29.85 inHg , 1010.8 hPa
Clouds: Clear
Visibility: 10 miles , 16 km
2021/04/18 00:58 KEUF 180058Z AUTO 00000KT 10SM CLR 19/16 A2985 RMK AO2 SLP106 T01890156
KJKA - Gulf Shores, Alabama, USA
Distance from station: SSW 132mi, 212km
Updated: Sat, 17-Apr-2021 8:35pm CDT
Rain, Overcast
Rain, Overcast
 Wind from calm
Wind: Calm
Temperature: 63°F , 17°C
Dew Point: 63°F , 17°C
Humidity: 100%
Barometer: 29.92 inHg , 1013.2 hPa
Summary: Rain
Clouds: Overcast
Visibility: 7 miles , 11 km
Cloud details: Partly cloudy 7000 ft
Overcast 10000 ft
2021/04/18 01:35 KJKA 180135Z AUTO 00000KT 7SM RA SCT070 OVC100 17/17 A2992 RMK AO2 LTG DSNT SE AND S P0005 T01700166
KLSF - Ft Benning/Colum, Georgia, USA
Distance from station: SNE 89mi, 143km
Updated: Sat, 17-Apr-2021 7:56pm CDT
Few Clouds
Few Clouds
 Wind from calm
Wind: Calm
Temperature: 63°F , 17°C
Dew Point: 57°F , 14°C
Humidity: 83%
Barometer: 29.83 inHg , 1010.2 hPa
Clouds: Few Clouds
Visibility: 10 miles , 16 km
Cloud details: Few Clouds 18000 ft
2021/04/18 00:56 KLSF 180056Z AUTO 00000KT 10SM FEW180 17/14 A2983 RMK AO2 SLP106 T01690138 $
 
KMOB - Mobile/Bates, Alabama, USA
Distance from station: SW 125mi, 202km
Updated: Sat, 17-Apr-2021 7:56pm CDT
Overcast
Overcast
 Wind from calm
Wind: Calm
Temperature: 63°F , 17°C
Dew Point: 63°F , 17°C
Humidity: 100%
Barometer: 29.90 inHg , 1012.5 hPa
Clouds: Overcast
Visibility: 7 miles , 11 km
Cloud details: Partly cloudy 400 ft
Mostly cloudy 4400 ft
Overcast 11000 ft
2021/04/18 00:56 KMOB 180056Z 00000KT 7SM SCT004 BKN044 OVC110 17/17 A2990 RMK AO2 RAB19E56 SLP123 P0001 T01720167 $
KNMM - Meridian Nas, Mississippi, USA
Distance from station: WNW 151mi, 243km
Updated: Sat, 17-Apr-2021 7:56pm CDT
Mostly cloudy
Mostly cloudy
 Wind from NNW
Wind: NNW 6 mph , 9 km/h
Temperature: 63°F , 17°C
Dew Point: 50°F , 10°C
Humidity: 64%
Barometer: 29.92 inHg , 1013.2 hPa
Clouds: Mostly cloudy
Visibility: 10 miles , 16 km
Cloud details: Mostly cloudy 5000 ft
2021/04/18 00:56 KNMM 180056Z AUTO 33005KT 10SM BKN050 17/10 A2992 RMK AO2 SLP141 T01720100
KQHY - Hurlbert (Ft Walton Bch), Florida, USA
Distance from station: S 94mi, 151km
Updated: Sat, 17-Apr-2021 7:56pm CDT
Light drizzle, Overcast
Light drizzle, Overcast
 Wind from calm
Wind: Calm
Temperature: 63°F , 17°C
Dew Point: 63°F , 17°C
Humidity: 100%
Barometer: 29.87 inHg , 1011.5 hPa
Summary: Light Drizzle
Clouds: Overcast
Visibility: 10 miles , 16 km
Cloud details: Few Clouds 500 ft
Partly cloudy 1900 ft
Partly cloudy 4700 ft
Overcast 13000 ft
2021/04/18 00:56 KQHY 180056Z AUTO 00000KT 10SM -DZ FEW005 SCT019 SCT047 OVC130 17/17 A2987 RMK AO2 RAB09E51DZB51 SLP121 P0001 T01720169 $
 
KTCL - Tuscaloosa, Alabama, USA
Distance from station: NNW 129mi, 207km
Updated: Sat, 17-Apr-2021 7:53pm CDT
Clear
Clear
 Wind from NW
Wind: NW 6 mph , 9 km/h
Temperature: 64°F , 18°C
Dew Point: 48°F , 9°C
Humidity: 56%
Barometer: 29.90 inHg , 1012.5 hPa
Clouds: Clear
Visibility: 10 miles , 16 km
2021/04/18 00:53 KTCL 180053Z 31005KT 10SM CLR 18/09 A2990 RMK AO2 SLP125 T01830089
KECP - Panama City, Florida, USA
Distance from station: SSE 122mi, 196km
Updated: Sat, 17-Apr-2021 7:53pm CDT
Light rain, Overcast
Light rain, Overcast
 Wind from WNW
Wind: WNW 7 mph , 11 km/h
Temperature: 63°F , 17°C
Dew Point: 63°F , 17°C
Humidity: 100%
Barometer: 29.89 inHg , 1012.2 hPa
Summary: Light rain
Clouds: Overcast
Visibility: 7 miles , 11 km
Cloud details: Overcast 400 ft
2021/04/18 00:53 KECP 180053Z 30006KT 7SM -RA OVC004 17/17 A2989 RMK AO2 LTG DSNT SE RAE2357B50 CIG 003V008 PRESRR SLP131 P0000 T01720167
KCBM - Columbus Afb, Mississippi, USA
Distance from station: NW 175mi, 282km
Updated: Sat, 17-Apr-2021 7:56pm CDT
Clear
Clear
 Wind from N
Wind: N 5 mph , 7 km/h
Temperature: 59°F , 15°C
Dew Point: 46°F , 8°C
Humidity: 63%
Barometer: 29.92 inHg , 1013.2 hPa
Clouds: Clear
Visibility: 10 miles , 16 km
2021/04/18 00:56 KCBM 180056Z AUTO 35004KT 10SM CLR 15/08 A2992 RMK AO2 SLP134 T01520075 $
 
KBHM - Birmingham, Alabama, USA
Distance from station: N 132mi, 212km
Updated: Sat, 17-Apr-2021 7:53pm CDT
Mostly cloudy
Mostly cloudy
 Wind from N
Wind: N 8 mph , 13 km/h
Temperature: 63°F , 17°C
Dew Point: 46°F , 8°C
Humidity: 56%
Barometer: 29.91 inHg , 1012.9 hPa
Clouds: Mostly cloudy
Visibility: 10 miles , 16 km
Cloud details: Partly cloudy 5500 ft
Mostly cloudy 10000 ft
2021/04/18 00:53 KBHM 180053Z 35007KT 10SM SCT055 BKN100 17/08 A2991 RMK AO2 SLP124 T01670078 $
KAAF - Apalachicola, Florida, USA
Distance from station: SSE 156mi, 250km
Updated: Sat, 17-Apr-2021 7:53pm CDT
Heavy rain, Mist, Overcast
Heavy rain, Mist, Overcast
 Wind from SSW
Wind: SSW 5 mph , 7 km/h
Temperature: 66°F , 19°C
Dew Point: 66°F , 19°C
Humidity: 100%
Barometer: 29.87 inHg , 1011.5 hPa
Summary: Heavy rain, Mist
Clouds: Overcast
Visibility: 4 miles , 6 km
Cloud details: Few Clouds 4000 ft
Overcast 5500 ft
2021/04/18 00:53 KAAF 180053Z AUTO 20004KT 4SM +RA BR FEW040 OVC055 19/19 A2987 RMK AO2 LTG DSNT W-N RAE2355B11 SLP114 P0003 T01940189 $
KATL - Atlanta, Georgia, USA
Distance from station: NE 177mi, 287km
Updated: Sat, 17-Apr-2021 7:52pm CDT
Mostly cloudy
Mostly cloudy
 Wind from NNW
Wind: NNW 7 mph , 11 km/h
Temperature: 64°F , 18°C
Dew Point: 45°F , 7°C
Humidity: 49%
Barometer: 29.86 inHg , 1011.2 hPa
Clouds: Mostly cloudy
Visibility: 10 miles , 16 km
Cloud details: Partly cloudy 6500 ft
Partly cloudy 21000 ft
Mostly cloudy 25000 ft
2021/04/18 00:52 KATL 180052Z 33006KT 10SM SCT065 SCT210 BKN250 18/07 A2986 RMK AO2 SLP107 T01830072
 
KGPT - Gulfport, Mississippi, USA
Distance from station: SW 192mi, 309km
Updated: Sat, 17-Apr-2021 7:53pm CDT
Light rain, Overcast
Light rain, Overcast
 Wind from NW
Wind: NW 5 mph , 7 km/h
Temperature: 64°F , 18°C
Dew Point: 63°F , 17°C
Humidity: 94%
Barometer: 29.91 inHg , 1012.9 hPa
Summary: Light rain
Clouds: Overcast
Visibility: 10 miles , 16 km
Cloud details: Few Clouds 9000 ft
Overcast 11000 ft
2021/04/18 00:53 KGPT 180053Z 31004KT 10SM -RA FEW090 OVC110 18/17 A2991 RMK AO2 SLP127 P0001 T01780167
KNEW - New Orleans/Lake, Louisiana, USA
Distance from station: SW 255mi, 410km
Updated: Sat, 17-Apr-2021 7:53pm CDT
Overcast
Overcast
 Wind from N
Wind: N 21 mph , 33 km/h
Temperature: 72°F , 22°C
Dew Point: 59°F , 15°C
Humidity: 65%
Barometer: 29.89 inHg , 1012.2 hPa
Clouds: Overcast
Visibility: 10 miles , 16 km
Cloud details: Partly cloudy 3300 ft
Partly cloudy 8500 ft
Overcast 11000 ft
2021/04/18 00:53 KNEW 180053Z 01018KT 10SM SCT033 SCT085 OVC110 22/15 A2989 RMK AO2 RAE35 SLP115 P0001 T02220150 $
KP92 - Salt Point, Louisiana, USA
Distance from station: SW 347mi, 559km
Updated: Sat, 17-Apr-2021 6:59pm CDT
NOT Current

 Wind from N
Wind: N 9 mph , 15 km/h, Gust: 18 mph , 30 km/h
Temperature: 61°F , 16°C
Dew Point: 59°F , 15°C
Humidity: 94%
Barometer: 29.87 inHg , 1011.5 hPa
2021/04/17 23:59 KP92 172359Z AUTO 36008G16KT 16/15 A2987 RMK AO1 SLP115 60021 T01610150 10178 20161 58001